sensor_id;sensor_type;location;lat;lon;timestamp;P1;durP1;ratioP1;P2;durP2;ratioP2
72335;SDS011;65062;48.446;8.834;2023-02-22T00:02:54;7.30;;;3.90;;
72335;SDS011;65062;48.446;8.834;2023-02-22T00:05:59;6.32;;;3.42;;
72335;SDS011;65062;48.446;8.834;2023-02-22T00:09:03;9.95;;;3.97;;
72335;SDS011;65062;48.446;8.834;2023-02-22T00:12:04;7.32;;;3.28;;
72335;SDS011;65062;48.446;8.834;2023-02-22T00:15:04;6.35;;;3.85;;
72335;SDS011;65062;48.446;8.834;2023-02-22T00:18:05;7.60;;;3.50;;
72335;SDS011;65062;48.446;8.834;2023-02-22T00:21:06;6.22;;;3.50;;
72335;SDS011;65062;48.446;8.834;2023-02-22T00:24:09;5.70;;;3.80;;
72335;SDS011;65062;48.446;8.834;2023-02-22T00:27:22;8.75;;;4.22;;
72335;SDS011;65062;48.446;8.834;2023-02-22T00:30:23;5.15;;;3.22;;
72335;SDS011;65062;48.446;8.834;2023-02-22T00:33:25;6.22;;;3.20;;
72335;SDS011;65062;48.446;8.834;2023-02-22T00:36:26;11.73;;;3.63;;
72335;SDS011;65062;48.446;8.834;2023-02-22T00:39:26;6.90;;;3.55;;
72335;SDS011;65062;48.446;8.834;2023-02-22T00:42:27;10.48;;;4.00;;
72335;SDS011;65062;48.446;8.834;2023-02-22T00:45:28;6.80;;;3.30;;
72335;SDS011;65062;48.446;8.834;2023-02-22T00:48:29;6.65;;;3.72;;
72335;SDS011;65062;48.446;8.834;2023-02-22T00:51:29;6.70;;;3.38;;
72335;SDS011;65062;48.446;8.834;2023-02-22T00:54:30;6.78;;;3.90;;
72335;SDS011;65062;48.446;8.834;2023-02-22T00:57:30;6.40;;;3.63;;
72335;SDS011;65062;48.446;8.834;2023-02-22T01:00:32;7.78;;;4.55;;
72335;SDS011;65062;48.446;8.834;2023-02-22T01:03:35;7.65;;;3.85;;
72335;SDS011;65062;48.446;8.834;2023-02-22T01:06:40;8.18;;;3.58;;
72335;SDS011;65062;48.446;8.834;2023-02-22T01:09:40;7.22;;;3.88;;
72335;SDS011;65062;48.446;8.834;2023-02-22T01:12:41;8.52;;;3.38;;
72335;SDS011;65062;48.446;8.834;2023-02-22T01:15:41;7.85;;;4.45;;
72335;SDS011;65062;48.446;8.834;2023-02-22T01:18:43;7.90;;;3.45;;
72335;SDS011;65062;48.446;8.834;2023-02-22T01:21:44;7.00;;;3.42;;
72335;SDS011;65062;48.446;8.834;2023-02-22T01:24:46;6.85;;;3.92;;
72335;SDS011;65062;48.446;8.834;2023-02-22T01:27:48;6.28;;;3.80;;
72335;SDS011;65062;48.446;8.834;2023-02-22T01:30:49;7.72;;;4.53;;
72335;SDS011;65062;48.446;8.834;2023-02-22T01:33:49;6.47;;;3.55;;
72335;SDS011;65062;48.446;8.834;2023-02-22T01:36:50;8.60;;;3.72;;
72335;SDS011;65062;48.446;8.834;2023-02-22T01:39:50;7.32;;;3.75;;
72335;SDS011;65062;48.446;8.834;2023-02-22T01:42:51;6.40;;;3.28;;
72335;SDS011;65062;48.446;8.834;2023-02-22T01:49:03;6.30;;;3.80;;
72335;SDS011;65062;48.446;8.834;2023-02-22T01:52:06;5.50;;;3.47;;
72335;SDS011;65062;48.446;8.834;2023-02-22T01:55:08;8.10;;;4.22;;
72335;SDS011;65062;48.446;8.834;2023-02-22T01:58:10;7.82;;;3.90;;
72335;SDS011;65062;48.446;8.834;2023-02-22T02:01:12;6.20;;;3.85;;
72335;SDS011;65062;48.446;8.834;2023-02-22T02:07:17;6.65;;;3.63;;
72335;SDS011;65062;48.446;8.834;2023-02-22T02:10:20;7.43;;;3.88;;
72335;SDS011;65062;48.446;8.834;2023-02-22T02:13:23;6.07;;;3.33;;
72335;SDS011;65062;48.446;8.834;2023-02-22T02:16:34;7.32;;;4.25;;
72335;SDS011;65062;48.446;8.834;2023-02-22T02:26:40;8.68;;;3.97;;
72335;SDS011;65062;48.446;8.834;2023-02-22T02:33:49;6.10;;;3.47;;
72335;SDS011;65062;48.446;8.834;2023-02-22T02:37:39;10.38;;;3.75;;
72335;SDS011;65062;48.446;8.834;2023-02-22T02:44:01;6.40;;;3.30;;
72335;SDS011;65062;48.446;8.834;2023-02-22T02:47:12;7.00;;;3.65;;
72335;SDS011;65062;48.446;8.834;2023-02-22T02:50:19;9.38;;;3.90;;
72335;SDS011;65062;48.446;8.834;2023-02-22T02:53:26;7.80;;;3.90;;
72335;SDS011;65062;48.446;8.834;2023-02-22T02:56:32;7.95;;;3.60;;
72335;SDS011;65062;48.446;8.834;2023-02-22T02:59:33;6.82;;;3.78;;
72335;SDS011;65062;48.446;8.834;2023-02-22T03:02:52;9.07;;;4.47;;
72335;SDS011;65062;48.446;8.834;2023-02-22T03:22:27;7.50;;;3.92;;
72335;SDS011;65062;48.446;8.834;2023-02-22T03:25:34;7.55;;;3.95;;
72335;SDS011;65062;48.446;8.834;2023-02-22T03:28:39;5.10;;;3.60;;
72335;SDS011;65062;48.446;8.834;2023-02-22T03:31:43;8.43;;;4.00;;
72335;SDS011;65062;48.446;8.834;2023-02-22T03:34:52;5.30;;;3.35;;
72335;SDS011;65062;48.446;8.834;2023-02-22T03:37:57;6.45;;;3.90;;
72335;SDS011;65062;48.446;8.834;2023-02-22T03:41:00;6.30;;;4.05;;
72335;SDS011;65062;48.446;8.834;2023-02-22T03:44:05;7.60;;;3.90;;
72335;SDS011;65062;48.446;8.834;2023-02-22T03:47:11;6.35;;;3.38;;
72335;SDS011;65062;48.446;8.834;2023-02-22T03:50:19;6.05;;;3.85;;
72335;SDS011;65062;48.446;8.834;2023-02-22T03:53:25;6.90;;;3.72;;
72335;SDS011;65062;48.446;8.834;2023-02-22T03:56:46;6.38;;;3.42;;
72335;SDS011;65062;48.446;8.834;2023-02-22T03:59:52;5.75;;;3.13;;
72335;SDS011;65062;48.446;8.834;2023-02-22T04:02:52;7.57;;;4.25;;
72335;SDS011;65062;48.446;8.834;2023-02-22T04:05:53;6.88;;;3.50;;
72335;SDS011;65062;48.446;8.834;2023-02-22T04:08:54;6.75;;;3.45;;
72335;SDS011;65062;48.446;8.834;2023-02-22T04:11:54;5.25;;;3.47;;
72335;SDS011;65062;48.446;8.834;2023-02-22T04:14:55;7.97;;;4.13;;
72335;SDS011;65062;48.446;8.834;2023-02-22T04:17:55;8.32;;;3.50;;
72335;SDS011;65062;48.446;8.834;2023-02-22T04:20:55;6.00;;;3.33;;
72335;SDS011;65062;48.446;8.834;2023-02-22T04:23:56;7.20;;;3.72;;
72335;SDS011;65062;48.446;8.834;2023-02-22T04:26:57;7.35;;;3.72;;
72335;SDS011;65062;48.446;8.834;2023-02-22T04:29:57;8.38;;;3.55;;
72335;SDS011;65062;48.446;8.834;2023-02-22T04:32:57;5.70;;;3.65;;
72335;SDS011;65062;48.446;8.834;2023-02-22T04:35:58;8.05;;;3.47;;
72335;SDS011;65062;48.446;8.834;2023-02-22T04:38:59;7.28;;;3.85;;
72335;SDS011;65062;48.446;8.834;2023-02-22T04:41:59;6.78;;;3.55;;
72335;SDS011;65062;48.446;8.834;2023-02-22T04:45:00;6.30;;;3.67;;
72335;SDS011;65062;48.446;8.834;2023-02-22T04:48:00;9.48;;;3.90;;
72335;SDS011;65062;48.446;8.834;2023-02-22T04:51:01;9.57;;;3.92;;
72335;SDS011;65062;48.446;8.834;2023-02-22T04:54:01;7.70;;;3.63;;
72335;SDS011;65062;48.446;8.834;2023-02-22T04:57:02;6.13;;;3.38;;
72335;SDS011;65062;48.446;8.834;2023-02-22T05:00:03;7.05;;;4.88;;
72335;SDS011;65062;48.446;8.834;2023-02-22T05:03:05;9.68;;;5.22;;
72335;SDS011;65062;48.446;8.834;2023-02-22T05:06:05;10.93;;;5.47;;
72335;SDS011;65062;48.446;8.834;2023-02-22T05:09:06;8.88;;;4.70;;
72335;SDS011;65062;48.446;8.834;2023-02-22T05:12:06;5.78;;;4.07;;
72335;SDS011;65062;48.446;8.834;2023-02-22T05:15:07;8.23;;;4.10;;
72335;SDS011;65062;48.446;8.834;2023-02-22T05:18:08;7.70;;;4.03;;
72335;SDS011;65062;48.446;8.834;2023-02-22T05:21:09;8.95;;;4.55;;
72335;SDS011;65062;48.446;8.834;2023-02-22T05:24:10;7.90;;;3.75;;
72335;SDS011;65062;48.446;8.834;2023-02-22T05:27:10;7.50;;;4.13;;
72335;SDS011;65062;48.446;8.834;2023-02-22T05:30:11;7.65;;;3.85;;
72335;SDS011;65062;48.446;8.834;2023-02-22T05:33:12;10.25;;;4.53;;
72335;SDS011;65062;48.446;8.834;2023-02-22T05:36:12;7.43;;;4.40;;
72335;SDS011;65062;48.446;8.834;2023-02-22T05:39:13;7.35;;;3.80;;
72335;SDS011;65062;48.446;8.834;2023-02-22T05:42:13;5.95;;;4.25;;
72335;SDS011;65062;48.446;8.834;2023-02-22T05:45:14;5.88;;;3.42;;
72335;SDS011;65062;48.446;8.834;2023-02-22T05:48:16;8.18;;;4.50;;
72335;SDS011;65062;48.446;8.834;2023-02-22T05:51:16;7.43;;;4.03;;
72335;SDS011;65062;48.446;8.834;2023-02-22T05:54:18;9.32;;;3.83;;
72335;SDS011;65062;48.446;8.834;2023-02-22T05:57:18;8.27;;;4.53;;
72335;SDS011;65062;48.446;8.834;2023-02-22T06:00:20;7.97;;;3.97;;
72335;SDS011;65062;48.446;8.834;2023-02-22T06:03:22;8.55;;;3.80;;
72335;SDS011;65062;48.446;8.834;2023-02-22T06:06:23;6.75;;;3.60;;
72335;SDS011;65062;48.446;8.834;2023-02-22T06:09:23;8.23;;;4.05;;
72335;SDS011;65062;48.446;8.834;2023-02-22T06:12:24;5.93;;;3.88;;
72335;SDS011;65062;48.446;8.834;2023-02-22T06:15:24;6.38;;;3.72;;
72335;SDS011;65062;48.446;8.834;2023-02-22T06:18:26;7.25;;;4.10;;
72335;SDS011;65062;48.446;8.834;2023-02-22T06:21:29;7.68;;;4.65;;
72335;SDS011;65062;48.446;8.834;2023-02-22T06:24:29;7.35;;;3.50;;
72335;SDS011;65062;48.446;8.834;2023-02-22T06:27:30;8.90;;;3.67;;
72335;SDS011;65062;48.446;8.834;2023-02-22T06:30:32;9.13;;;4.43;;
72335;SDS011;65062;48.446;8.834;2023-02-22T06:33:32;8.77;;;3.72;;
72335;SDS011;65062;48.446;8.834;2023-02-22T06:36:33;6.50;;;3.83;;
72335;SDS011;65062;48.446;8.834;2023-02-22T06:39:33;6.57;;;3.80;;
72335;SDS011;65062;48.446;8.834;2023-02-22T06:42:33;6.75;;;3.58;;
72335;SDS011;65062;48.446;8.834;2023-02-22T06:45:34;5.95;;;4.03;;
72335;SDS011;65062;48.446;8.834;2023-02-22T06:48:35;7.35;;;4.45;;
72335;SDS011;65062;48.446;8.834;2023-02-22T06:51:37;6.78;;;4.00;;
72335;SDS011;65062;48.446;8.834;2023-02-22T06:54:37;5.18;;;3.72;;
72335;SDS011;65062;48.446;8.834;2023-02-22T06:57:38;8.60;;;4.25;;
72335;SDS011;65062;48.446;8.834;2023-02-22T07:00:39;8.35;;;3.70;;
72335;SDS011;65062;48.446;8.834;2023-02-22T07:03:39;8.52;;;5.10;;
72335;SDS011;65062;48.446;8.834;2023-02-22T07:06:49;8.07;;;3.95;;
72335;SDS011;65062;48.446;8.834;2023-02-22T07:09:49;7.22;;;3.90;;
72335;SDS011;65062;48.446;8.834;2023-02-22T07:12:50;7.40;;;4.45;;
72335;SDS011;65062;48.446;8.834;2023-02-22T07:15:53;6.63;;;4.15;;
72335;SDS011;65062;48.446;8.834;2023-02-22T07:18:53;7.40;;;4.30;;
72335;SDS011;65062;48.446;8.834;2023-02-22T07:21:53;7.65;;;4.13;;
72335;SDS011;65062;48.446;8.834;2023-02-22T07:24:58;7.28;;;3.50;;
72335;SDS011;65062;48.446;8.834;2023-02-22T07:27:59;9.02;;;4.55;;
72335;SDS011;65062;48.446;8.834;2023-02-22T07:31:00;6.75;;;4.43;;
72335;SDS011;65062;48.446;8.834;2023-02-22T07:34:01;8.70;;;4.93;;
72335;SDS011;65062;48.446;8.834;2023-02-22T07:37:01;10.10;;;4.85;;
72335;SDS011;65062;48.446;8.834;2023-02-22T07:40:01;17.30;;;8.25;;
72335;SDS011;65062;48.446;8.834;2023-02-22T07:43:13;12.98;;;5.15;;
72335;SDS011;65062;48.446;8.834;2023-02-22T07:46:15;5.93;;;4.03;;
72335;SDS011;65062;48.446;8.834;2023-02-22T07:49:15;6.20;;;4.05;;
72335;SDS011;65062;48.446;8.834;2023-02-22T07:52:16;8.07;;;4.40;;
72335;SDS011;65062;48.446;8.834;2023-02-22T07:55:17;7.15;;;4.63;;
72335;SDS011;65062;48.446;8.834;2023-02-22T07:58:21;7.78;;;4.43;;
72335;SDS011;65062;48.446;8.834;2023-02-22T08:01:23;6.93;;;4.10;;
72335;SDS011;65062;48.446;8.834;2023-02-22T08:04:23;8.40;;;4.50;;
72335;SDS011;65062;48.446;8.834;2023-02-22T08:07:24;7.63;;;4.45;;
72335;SDS011;65062;48.446;8.834;2023-02-22T08:10:25;8.48;;;4.72;;
72335;SDS011;65062;48.446;8.834;2023-02-22T08:13:25;9.27;;;5.28;;
72335;SDS011;65062;48.446;8.834;2023-02-22T08:16:26;6.35;;;4.50;;
72335;SDS011;65062;48.446;8.834;2023-02-22T08:19:26;9.43;;;5.63;;
72335;SDS011;65062;48.446;8.834;2023-02-22T08:22:26;9.43;;;5.10;;
72335;SDS011;65062;48.446;8.834;2023-02-22T08:25:28;10.10;;;4.55;;
72335;SDS011;65062;48.446;8.834;2023-02-22T08:28:28;9.57;;;4.85;;
72335;SDS011;65062;48.446;8.834;2023-02-22T08:31:28;8.30;;;4.88;;
72335;SDS011;65062;48.446;8.834;2023-02-22T08:34:29;7.95;;;5.30;;
72335;SDS011;65062;48.446;8.834;2023-02-22T08:37:29;8.05;;;4.97;;
72335;SDS011;65062;48.446;8.834;2023-02-22T08:40:31;7.72;;;4.60;;
72335;SDS011;65062;48.446;8.834;2023-02-22T08:43:33;7.80;;;5.28;;
72335;SDS011;65062;48.446;8.834;2023-02-22T08:46:33;7.60;;;4.75;;
72335;SDS011;65062;48.446;8.834;2023-02-22T08:49:34;9.77;;;5.32;;
72335;SDS011;65062;48.446;8.834;2023-02-22T08:52:34;9.25;;;5.28;;
72335;SDS011;65062;48.446;8.834;2023-02-22T08:55:36;7.82;;;4.63;;
72335;SDS011;65062;48.446;8.834;2023-02-22T08:58:38;10.00;;;4.68;;
72335;SDS011;65062;48.446;8.834;2023-02-22T09:01:38;8.63;;;4.90;;
72335;SDS011;65062;48.446;8.834;2023-02-22T09:04:39;6.63;;;4.53;;
72335;SDS011;65062;48.446;8.834;2023-02-22T09:07:40;9.50;;;6.78;;
72335;SDS011;65062;48.446;8.834;2023-02-22T09:10:41;11.38;;;6.93;;
72335;SDS011;65062;48.446;8.834;2023-02-22T09:13:41;9.80;;;5.57;;
72335;SDS011;65062;48.446;8.834;2023-02-22T09:16:43;9.70;;;5.40;;
72335;SDS011;65062;48.446;8.834;2023-02-22T09:19:44;8.85;;;5.93;;
72335;SDS011;65062;48.446;8.834;2023-02-22T09:22:45;30.42;;;15.32;;
72335;SDS011;65062;48.446;8.834;2023-02-22T09:25:46;14.07;;;8.70;;
72335;SDS011;65062;48.446;8.834;2023-02-22T09:28:47;9.73;;;6.85;;
72335;SDS011;65062;48.446;8.834;2023-02-22T09:31:48;9.50;;;5.47;;
72335;SDS011;65062;48.446;8.834;2023-02-22T09:34:49;6.65;;;4.50;;
72335;SDS011;65062;48.446;8.834;2023-02-22T09:37:52;6.55;;;4.55;;
72335;SDS011;65062;48.446;8.834;2023-02-22T09:41:07;8.43;;;4.75;;
72335;SDS011;65062;48.446;8.834;2023-02-22T09:44:15;10.43;;;4.50;;
72335;SDS011;65062;48.446;8.834;2023-02-22T09:50:45;5.53;;;3.45;;
72335;SDS011;65062;48.446;8.834;2023-02-22T09:53:48;8.00;;;4.95;;
72335;SDS011;65062;48.446;8.834;2023-02-22T09:56:54;7.10;;;3.67;;
72335;SDS011;65062;48.446;8.834;2023-02-22T10:06:20;7.80;;;4.07;;
72335;SDS011;65062;48.446;8.834;2023-02-22T10:09:24;6.75;;;4.13;;
72335;SDS011;65062;48.446;8.834;2023-02-22T10:12:31;6.97;;;4.35;;
72335;SDS011;65062;48.446;8.834;2023-02-22T10:22:34;9.95;;;5.10;;
72335;SDS011;65062;48.446;8.834;2023-02-22T10:25:43;10.60;;;5.10;;
72335;SDS011;65062;48.446;8.834;2023-02-22T10:32:00;7.70;;;4.35;;
72335;SDS011;65062;48.446;8.834;2023-02-22T10:35:05;9.02;;;4.85;;
72335;SDS011;65062;48.446;8.834;2023-02-22T10:38:20;7.10;;;4.78;;
72335;SDS011;65062;48.446;8.834;2023-02-22T10:41:30;6.72;;;4.50;;
72335;SDS011;65062;48.446;8.834;2023-02-22T10:44:33;8.98;;;6.25;;
72335;SDS011;65062;48.446;8.834;2023-02-22T10:47:35;8.88;;;5.47;;
72335;SDS011;65062;48.446;8.834;2023-02-22T10:53:41;10.13;;;5.40;;
72335;SDS011;65062;48.446;8.834;2023-02-22T10:56:46;8.68;;;4.72;;
72335;SDS011;65062;48.446;8.834;2023-02-22T10:59:48;6.68;;;4.57;;
72335;SDS011;65062;48.446;8.834;2023-02-22T11:03:00;7.47;;;4.60;;
72335;SDS011;65062;48.446;8.834;2023-02-22T11:09:18;7.38;;;4.15;;
72335;SDS011;65062;48.446;8.834;2023-02-22T11:12:33;5.65;;;3.80;;
72335;SDS011;65062;48.446;8.834;2023-02-22T11:15:39;7.07;;;3.97;;
72335;SDS011;65062;48.446;8.834;2023-02-22T11:18:39;5.93;;;3.63;;
72335;SDS011;65062;48.446;8.834;2023-02-22T11:21:40;7.25;;;4.28;;
72335;SDS011;65062;48.446;8.834;2023-02-22T11:24:45;6.53;;;3.90;;
72335;SDS011;65062;48.446;8.834;2023-02-22T11:27:49;5.25;;;3.80;;
72335;SDS011;65062;48.446;8.834;2023-02-22T11:30:51;6.57;;;3.65;;
72335;SDS011;65062;48.446;8.834;2023-02-22T11:36:54;6.25;;;3.70;;
72335;SDS011;65062;48.446;8.834;2023-02-22T11:43:18;7.65;;;4.10;;
72335;SDS011;65062;48.446;8.834;2023-02-22T11:46:23;5.50;;;3.85;;
72335;SDS011;65062;48.446;8.834;2023-02-22T11:49:36;7.00;;;4.30;;
72335;SDS011;65062;48.446;8.834;2023-02-22T11:52:40;7.32;;;4.13;;
72335;SDS011;65062;48.446;8.834;2023-02-22T12:15:58;4.85;;;3.72;;
72335;SDS011;65062;48.446;8.834;2023-02-22T12:22:17;6.30;;;4.15;;
72335;SDS011;65062;48.446;8.834;2023-02-22T12:25:19;4.20;;;3.47;;
72335;SDS011;65062;48.446;8.834;2023-02-22T12:28:24;5.50;;;4.35;;
72335;SDS011;65062;48.446;8.834;2023-02-22T12:31:44;8.40;;;6.75;;
72335;SDS011;65062;48.446;8.834;2023-02-22T12:34:55;5.13;;;4.00;;
72335;SDS011;65062;48.446;8.834;2023-02-22T12:41:41;4.47;;;3.35;;
72335;SDS011;65062;48.446;8.834;2023-02-22T12:44:47;6.15;;;3.97;;
72335;SDS011;65062;48.446;8.834;2023-02-22T12:51:47;5.18;;;3.50;;
72335;SDS011;65062;48.446;8.834;2023-02-22T12:54:58;5.65;;;3.33;;
72335;SDS011;65062;48.446;8.834;2023-02-22T12:58:06;5.78;;;3.97;;
72335;SDS011;65062;48.446;8.834;2023-02-22T13:01:17;4.60;;;3.80;;
72335;SDS011;65062;48.446;8.834;2023-02-22T13:04:20;5.13;;;3.53;;
72335;SDS011;65062;48.446;8.834;2023-02-22T13:15:03;5.78;;;3.97;;
72335;SDS011;65062;48.446;8.834;2023-02-22T13:17:55;7.35;;;3.90;;
72335;SDS011;65062;48.446;8.834;2023-02-22T13:24:27;5.30;;;4.15;;
72335;SDS011;65062;48.446;8.834;2023-02-22T13:27:46;5.10;;;4.00;;
72335;SDS011;65062;48.446;8.834;2023-02-22T13:30:58;6.15;;;3.90;;
72335;SDS011;65062;48.446;8.834;2023-02-22T13:57:46;7.05;;;4.78;;
72335;SDS011;65062;48.446;8.834;2023-02-22T14:00:54;6.65;;;4.78;;
72335;SDS011;65062;48.446;8.834;2023-02-22T14:04:14;7.70;;;4.93;;
72335;SDS011;65062;48.446;8.834;2023-02-22T14:17:16;10.02;;;5.10;;
72335;SDS011;65062;48.446;8.834;2023-02-22T14:23:34;6.28;;;4.20;;
72335;SDS011;65062;48.446;8.834;2023-02-22T14:26:52;8.18;;;5.63;;
72335;SDS011;65062;48.446;8.834;2023-02-22T14:30:03;6.97;;;4.47;;
72335;SDS011;65062;48.446;8.834;2023-02-22T14:36:53;8.07;;;5.20;;
72335;SDS011;65062;48.446;8.834;2023-02-22T14:40:04;6.85;;;4.90;;
72335;SDS011;65062;48.446;8.834;2023-02-22T14:43:15;6.15;;;4.22;;
72335;SDS011;65062;48.446;8.834;2023-02-22T14:46:22;9.20;;;5.00;;
72335;SDS011;65062;48.446;8.834;2023-02-22T14:49:26;6.90;;;4.18;;
72335;SDS011;65062;48.446;8.834;2023-02-22T14:52:32;8.70;;;4.32;;
72335;SDS011;65062;48.446;8.834;2023-02-22T14:55:40;7.40;;;4.53;;
72335;SDS011;65062;48.446;8.834;2023-02-22T14:58:45;7.18;;;4.30;;
72335;SDS011;65062;48.446;8.834;2023-02-22T15:05:27;7.40;;;4.90;;
72335;SDS011;65062;48.446;8.834;2023-02-22T15:08:33;8.63;;;4.60;;
72335;SDS011;65062;48.446;8.834;2023-02-22T15:11:33;7.80;;;4.00;;
72335;SDS011;65062;48.446;8.834;2023-02-22T15:14:35;8.65;;;4.20;;
72335;SDS011;65062;48.446;8.834;2023-02-22T15:17:36;7.57;;;4.00;;
72335;SDS011;65062;48.446;8.834;2023-02-22T15:20:36;7.63;;;3.95;;
72335;SDS011;65062;48.446;8.834;2023-02-22T15:23:38;8.85;;;4.07;;
72335;SDS011;65062;48.446;8.834;2023-02-22T15:26:41;9.38;;;4.15;;
72335;SDS011;65062;48.446;8.834;2023-02-22T15:29:43;9.45;;;4.95;;
72335;SDS011;65062;48.446;8.834;2023-02-22T15:32:44;8.30;;;4.60;;
72335;SDS011;65062;48.446;8.834;2023-02-22T15:35:45;8.40;;;3.97;;
72335;SDS011;65062;48.446;8.834;2023-02-22T15:38:55;10.10;;;4.82;;
72335;SDS011;65062;48.446;8.834;2023-02-22T15:42:06;7.47;;;3.78;;
72335;SDS011;65062;48.446;8.834;2023-02-22T15:45:12;8.38;;;4.72;;
72335;SDS011;65062;48.446;8.834;2023-02-22T15:48:15;10.07;;;5.25;;
72335;SDS011;65062;48.446;8.834;2023-02-22T15:54:18;8.10;;;5.10;;
72335;SDS011;65062;48.446;8.834;2023-02-22T15:57:20;11.05;;;5.53;;
72335;SDS011;65062;48.446;8.834;2023-02-22T16:00:23;9.18;;;5.57;;
72335;SDS011;65062;48.446;8.834;2023-02-22T16:03:44;10.02;;;6.93;;
72335;SDS011;65062;48.446;8.834;2023-02-22T16:07:07;9.70;;;5.80;;
72335;SDS011;65062;48.446;8.834;2023-02-22T16:10:29;12.02;;;7.63;;
72335;SDS011;65062;48.446;8.834;2023-02-22T16:13:34;11.70;;;6.60;;
72335;SDS011;65062;48.446;8.834;2023-02-22T16:16:36;11.13;;;5.85;;
72335;SDS011;65062;48.446;8.834;2023-02-22T16:19:40;13.93;;;7.70;;
72335;SDS011;65062;48.446;8.834;2023-02-22T16:22:44;9.65;;;6.18;;
72335;SDS011;65062;48.446;8.834;2023-02-22T16:25:59;10.98;;;6.30;;
72335;SDS011;65062;48.446;8.834;2023-02-22T16:29:06;10.77;;;5.80;;
72335;SDS011;65062;48.446;8.834;2023-02-22T16:32:07;11.48;;;6.38;;
72335;SDS011;65062;48.446;8.834;2023-02-22T16:35:08;11.05;;;5.82;;
72335;SDS011;65062;48.446;8.834;2023-02-22T16:38:16;14.35;;;7.75;;
72335;SDS011;65062;48.446;8.834;2023-02-22T16:41:18;12.35;;;6.78;;
72335;SDS011;65062;48.446;8.834;2023-02-22T16:44:19;11.95;;;6.68;;
72335;SDS011;65062;48.446;8.834;2023-02-22T16:47:19;10.27;;;6.35;;
72335;SDS011;65062;48.446;8.834;2023-02-22T16:50:20;11.23;;;6.35;;
72335;SDS011;65062;48.446;8.834;2023-02-22T16:53:23;10.98;;;6.68;;
72335;SDS011;65062;48.446;8.834;2023-02-22T16:56:28;10.95;;;6.03;;
72335;SDS011;65062;48.446;8.834;2023-02-22T16:59:35;11.55;;;6.80;;
72335;SDS011;65062;48.446;8.834;2023-02-22T17:02:38;11.48;;;6.47;;
72335;SDS011;65062;48.446;8.834;2023-02-22T17:05:39;12.13;;;6.20;;
72335;SDS011;65062;48.446;8.834;2023-02-22T17:08:39;9.52;;;6.07;;
72335;SDS011;65062;48.446;8.834;2023-02-22T17:11:40;10.90;;;6.95;;
72335;SDS011;65062;48.446;8.834;2023-02-22T17:14:41;10.50;;;6.22;;
72335;SDS011;65062;48.446;8.834;2023-02-22T17:17:44;10.10;;;6.13;;
72335;SDS011;65062;48.446;8.834;2023-02-22T17:20:45;11.18;;;6.78;;
72335;SDS011;65062;48.446;8.834;2023-02-22T17:23:45;10.80;;;6.15;;
72335;SDS011;65062;48.446;8.834;2023-02-22T17:26:46;11.43;;;6.90;;
72335;SDS011;65062;48.446;8.834;2023-02-22T17:29:46;12.75;;;6.18;;
72335;SDS011;65062;48.446;8.834;2023-02-22T17:35:49;13.23;;;7.32;;
72335;SDS011;65062;48.446;8.834;2023-02-22T17:38:49;11.55;;;6.38;;
72335;SDS011;65062;48.446;8.834;2023-02-22T17:41:50;11.48;;;6.68;;
72335;SDS011;65062;48.446;8.834;2023-02-22T17:44:56;12.57;;;6.88;;
72335;SDS011;65062;48.446;8.834;2023-02-22T17:47:56;13.15;;;8.23;;
72335;SDS011;65062;48.446;8.834;2023-02-22T17:51:03;14.40;;;9.35;;
72335;SDS011;65062;48.446;8.834;2023-02-22T17:54:05;19.42;;;11.68;;
72335;SDS011;65062;48.446;8.834;2023-02-22T17:57:05;14.70;;;9.63;;
72335;SDS011;65062;48.446;8.834;2023-02-22T18:00:06;15.40;;;9.32;;
72335;SDS011;65062;48.446;8.834;2023-02-22T18:03:12;18.90;;;10.48;;
72335;SDS011;65062;48.446;8.834;2023-02-22T18:06:21;25.85;;;13.82;;
72335;SDS011;65062;48.446;8.834;2023-02-22T18:09:23;20.75;;;11.93;;
72335;SDS011;65062;48.446;8.834;2023-02-22T18:12:23;21.70;;;12.27;;
72335;SDS011;65062;48.446;8.834;2023-02-22T18:15:24;20.63;;;10.77;;
72335;SDS011;65062;48.446;8.834;2023-02-22T18:18:27;17.80;;;10.38;;
72335;SDS011;65062;48.446;8.834;2023-02-22T18:21:27;17.83;;;8.98;;
72335;SDS011;65062;48.446;8.834;2023-02-22T18:24:31;15.25;;;9.30;;
72335;SDS011;65062;48.446;8.834;2023-02-22T18:27:33;14.52;;;8.00;;
72335;SDS011;65062;48.446;8.834;2023-02-22T18:30:33;16.95;;;8.52;;
72335;SDS011;65062;48.446;8.834;2023-02-22T18:33:37;14.80;;;8.10;;
72335;SDS011;65062;48.446;8.834;2023-02-22T18:36:37;15.27;;;8.20;;
72335;SDS011;65062;48.446;8.834;2023-02-22T18:39:38;13.77;;;8.52;;
72335;SDS011;65062;48.446;8.834;2023-02-22T18:42:41;18.02;;;8.55;;
72335;SDS011;65062;48.446;8.834;2023-02-22T18:45:42;13.85;;;8.15;;
72335;SDS011;65062;48.446;8.834;2023-02-22T18:48:43;15.02;;;8.80;;
72335;SDS011;65062;48.446;8.834;2023-02-22T18:51:44;17.83;;;9.40;;
72335;SDS011;65062;48.446;8.834;2023-02-22T18:54:45;15.02;;;8.95;;
72335;SDS011;65062;48.446;8.834;2023-02-22T18:57:46;17.88;;;10.10;;
72335;SDS011;65062;48.446;8.834;2023-02-22T19:00:49;19.67;;;10.85;;
72335;SDS011;65062;48.446;8.834;2023-02-22T19:03:50;19.63;;;10.23;;
72335;SDS011;65062;48.446;8.834;2023-02-22T19:06:52;21.45;;;10.05;;
72335;SDS011;65062;48.446;8.834;2023-02-22T19:09:53;19.70;;;10.70;;
72335;SDS011;65062;48.446;8.834;2023-02-22T19:12:54;17.95;;;10.13;;
72335;SDS011;65062;48.446;8.834;2023-02-22T19:15:54;17.73;;;9.15;;
72335;SDS011;65062;48.446;8.834;2023-02-22T19:18:55;17.00;;;9.75;;
72335;SDS011;65062;48.446;8.834;2023-02-22T19:21:56;17.75;;;9.95;;
72335;SDS011;65062;48.446;8.834;2023-02-22T19:24:57;15.02;;;8.93;;
72335;SDS011;65062;48.446;8.834;2023-02-22T19:28:00;17.60;;;9.10;;
72335;SDS011;65062;48.446;8.834;2023-02-22T19:31:10;18.27;;;9.32;;
72335;SDS011;65062;48.446;8.834;2023-02-22T19:34:16;19.00;;;9.40;;
72335;SDS011;65062;48.446;8.834;2023-02-22T19:37:22;17.65;;;9.45;;
72335;SDS011;65062;48.446;8.834;2023-02-22T19:40:23;13.48;;;7.78;;
72335;SDS011;65062;48.446;8.834;2023-02-22T19:43:24;12.50;;;7.25;;
72335;SDS011;65062;48.446;8.834;2023-02-22T19:46:24;12.35;;;7.82;;
72335;SDS011;65062;48.446;8.834;2023-02-22T19:49:25;19.80;;;10.43;;
72335;SDS011;65062;48.446;8.834;2023-02-22T19:52:26;21.90;;;10.23;;
72335;SDS011;65062;48.446;8.834;2023-02-22T19:55:27;15.80;;;8.52;;
72335;SDS011;65062;48.446;8.834;2023-02-22T19:58:31;13.50;;;7.88;;
72335;SDS011;65062;48.446;8.834;2023-02-22T20:01:35;12.52;;;7.18;;
72335;SDS011;65062;48.446;8.834;2023-02-22T20:04:36;12.85;;;6.72;;
72335;SDS011;65062;48.446;8.834;2023-02-22T20:07:36;16.33;;;8.73;;
72335;SDS011;65062;48.446;8.834;2023-02-22T20:10:37;15.77;;;8.98;;
72335;SDS011;65062;48.446;8.834;2023-02-22T20:13:38;18.58;;;9.15;;
72335;SDS011;65062;48.446;8.834;2023-02-22T20:16:39;19.20;;;10.57;;
72335;SDS011;65062;48.446;8.834;2023-02-22T20:19:39;17.05;;;9.45;;
72335;SDS011;65062;48.446;8.834;2023-02-22T20:22:41;17.05;;;9.32;;
72335;SDS011;65062;48.446;8.834;2023-02-22T20:25:49;18.70;;;9.98;;
72335;SDS011;65062;48.446;8.834;2023-02-22T20:31:51;14.32;;;8.50;;
72335;SDS011;65062;48.446;8.834;2023-02-22T20:34:53;16.65;;;8.80;;
72335;SDS011;65062;48.446;8.834;2023-02-22T20:37:53;15.48;;;9.18;;
72335;SDS011;65062;48.446;8.834;2023-02-22T20:40:54;17.38;;;9.68;;
72335;SDS011;65062;48.446;8.834;2023-02-22T20:43:54;18.38;;;11.65;;
72335;SDS011;65062;48.446;8.834;2023-02-22T20:46:55;19.77;;;11.10;;
72335;SDS011;65062;48.446;8.834;2023-02-22T20:49:56;20.23;;;11.77;;
72335;SDS011;65062;48.446;8.834;2023-02-22T20:52:57;19.63;;;11.63;;
72335;SDS011;65062;48.446;8.834;2023-02-22T20:55:59;16.98;;;9.65;;
72335;SDS011;65062;48.446;8.834;2023-02-22T20:59:00;15.98;;;9.52;;
72335;SDS011;65062;48.446;8.834;2023-02-22T21:02:02;17.58;;;10.38;;
72335;SDS011;65062;48.446;8.834;2023-02-22T21:05:05;19.13;;;9.27;;